createdAt,value
2017-12-17T00:01:44.089Z,23.38
2017-12-17T00:04:13.428Z,24.27
2017-12-17T00:06:42.439Z,20.30
2017-12-17T00:09:11.439Z,22.45
2017-12-17T00:11:40.846Z,25.42
2017-12-17T00:14:09.855Z,21.67
2017-12-17T00:16:38.897Z,24.80
2017-12-17T00:19:07.925Z,21.02
2017-12-17T00:21:37.362Z,20.17
2017-12-17T00:24:06.289Z,28.15
2017-12-17T00:26:35.277Z,21.77
2017-12-17T00:29:04.603Z,18.52
2017-12-17T00:31:33.948Z,17.83
2017-12-17T00:34:03.324Z,19.85
2017-12-17T00:36:32.627Z,19.23
2017-12-17T00:39:02.282Z,21.67
2017-12-17T00:41:31.685Z,18.02
2017-12-17T00:44:00.995Z,21.50
2017-12-17T00:46:30.401Z,20.50
2017-12-17T00:48:59.778Z,22.52
2017-12-17T00:51:29.117Z,18.33
2017-12-17T00:53:58.070Z,19.27
2017-12-17T00:56:27.415Z,19.83
2017-12-17T00:58:56.769Z,18.73
2017-12-17T01:01:26.260Z,24.70
2017-12-17T01:03:55.554Z,20.25
2017-12-17T01:06:24.835Z,20.33
2017-12-17T01:08:54.166Z,21.60
2017-12-17T01:11:23.578Z,22.08
2017-12-17T01:13:53.021Z,22.10
2017-12-17T01:16:22.328Z,22.45
2017-12-17T01:18:51.127Z,25.52
2017-12-17T01:21:20.520Z,22.55
2017-12-17T01:23:49.823Z,25.17
2017-12-17T01:26:19.157Z,20.90
2017-12-17T01:28:48.558Z,23.60
2017-12-17T01:31:17.883Z,23.12
2017-12-17T01:33:47.239Z,22.80
2017-12-17T01:36:16.561Z,24.25
2017-12-17T01:38:47.401Z,22.75
2017-12-17T01:41:16.458Z,22.50
2017-12-17T01:43:45.543Z,24.70
2017-12-17T01:46:14.593Z,24.25
2017-12-17T01:48:43.507Z,24.60
2017-12-17T01:51:12.859Z,23.95
2017-12-17T01:53:42.262Z,27.85
2017-12-17T01:56:11.289Z,24.23
2017-12-17T01:58:40.260Z,30.70
2017-12-17T02:01:09.588Z,28.58
2017-12-17T02:03:38.891Z,25.23
2017-12-17T02:06:07.866Z,29.55
2017-12-17T02:08:37.186Z,30.30
2017-12-17T02:11:06.159Z,26.65
2017-12-17T02:13:35.132Z,29.20
2017-12-17T02:16:04.139Z,31.62
2017-12-17T02:18:33.246Z,30.95
2017-12-17T02:21:02.293Z,30.20
2017-12-17T02:23:31.590Z,29.12
2017-12-17T02:26:00.654Z,25.73
2017-12-17T02:28:29.702Z,28.42
2017-12-17T02:30:58.890Z,28.60
2017-12-17T02:33:27.879Z,31.87
2017-12-17T02:35:56.823Z,29.30
2017-12-17T02:38:25.863Z,28.25
2017-12-17T02:40:54.880Z,28.52
2017-12-17T02:43:23.835Z,30.10
2017-12-17T02:46:12.249Z,25.45
2017-12-17T02:48:43.843Z,29.40
2017-12-17T02:51:12.787Z,26.58
2017-12-17T02:53:41.795Z,27.23
2017-12-17T02:56:18.870Z,27.95
2017-12-17T02:58:50.862Z,28.33
2017-12-17T03:01:20.133Z,30.48
2017-12-17T03:03:49.183Z,25.27
2017-12-17T03:06:18.225Z,25.88
2017-12-17T03:08:47.218Z,23.33
2017-12-17T03:11:16.149Z,25.08
2017-12-17T03:13:45.221Z,24.65
2017-12-17T03:16:14.241Z,20.95
2017-12-17T03:18:43.189Z,29.00
2017-12-17T03:21:12.201Z,23.23
2017-12-17T03:23:41.441Z,24.33
2017-12-17T03:26:10.447Z,23.60
2017-12-17T03:28:39.612Z,25.17
2017-12-17T03:31:08.885Z,26.20
2017-12-17T03:33:38.929Z,28.23
2017-12-17T03:36:07.923Z,25.73
2017-12-17T03:38:37.131Z,27.30
2017-12-17T03:41:06.137Z,25.40
2017-12-17T03:43:35.114Z,25.80
2017-12-17T03:46:04.115Z,27.62
2017-12-17T03:48:33.474Z,24.67
2017-12-17T03:51:02.577Z,26.95
2017-12-17T03:53:36.352Z,22.83
2017-12-17T03:56:08.274Z,24.20
2017-12-17T03:58:37.535Z,28.15
2017-12-17T04:01:06.565Z,30.23
2017-12-17T04:03:35.309Z,24.73
2017-12-17T04:06:04.098Z,29.12
2017-12-17T04:08:33.085Z,23.95
2017-12-17T04:11:02.102Z,27.05
2017-12-17T04:13:31.168Z,27.60
2017-12-17T04:16:00.474Z,31.27
2017-12-17T04:18:29.522Z,24.77
2017-12-17T04:20:58.591Z,29.35
2017-12-17T04:23:27.700Z,28.98
2017-12-17T04:25:56.843Z,23.23
2017-12-17T04:28:26.360Z,26.67
2017-12-17T04:30:55.442Z,23.95
2017-12-17T04:33:24.447Z,26.65
2017-12-17T04:35:53.611Z,25.55
2017-12-17T04:38:23.058Z,23.90
2017-12-17T04:40:52.190Z,24.98
2017-12-17T04:43:21.188Z,24.15
2017-12-17T04:45:50.169Z,20.80
2017-12-17T04:48:19.126Z,18.40
2017-12-17T04:50:48.206Z,20.37
2017-12-17T04:53:17.152Z,21.50
2017-12-17T04:55:46.108Z,18.27
2017-12-17T04:58:15.489Z,16.08
2017-12-17T05:00:44.732Z,21.98
2017-12-17T05:03:14.119Z,23.45
2017-12-17T05:05:43.164Z,21.48
2017-12-17T05:08:12.118Z,17.37
2017-12-17T05:10:41.190Z,18.75
2017-12-17T05:13:10.193Z,17.33
2017-12-17T05:15:39.531Z,19.95
2017-12-17T05:18:08.608Z,19.20
2017-12-17T05:20:37.580Z,22.10
2017-12-17T05:23:06.588Z,23.87
2017-12-17T05:25:39.577Z,23.08
2017-12-17T05:28:08.577Z,22.13
2017-12-17T05:30:37.949Z,18.15
2017-12-17T05:33:07.389Z,23.40
2017-12-17T05:35:36.581Z,19.85
2017-12-17T05:38:05.549Z,17.70
2017-12-17T05:40:34.822Z,22.23
2017-12-17T05:43:03.839Z,17.58
2017-12-17T05:45:32.911Z,20.95
2017-12-17T05:48:01.917Z,19.33
2017-12-17T05:50:31.565Z,15.75
2017-12-17T05:53:00.522Z,15.57
2017-12-17T05:55:29.535Z,16.75
2017-12-17T05:57:59.555Z,19.60
2017-12-17T06:00:28.702Z,16.87
2017-12-17T06:02:57.671Z,16.30
2017-12-17T06:05:26.657Z,17.83
2017-12-17T06:07:55.636Z,17.52
2017-12-17T06:10:24.663Z,16.00
2017-12-17T06:12:53.973Z,14.30
2017-12-17T06:15:23.005Z,14.68
2017-12-17T06:17:52.312Z,14.98
2017-12-17T06:20:21.288Z,14.07
2017-12-17T06:22:50.264Z,13.25
2017-12-17T06:25:19.289Z,14.43
2017-12-17T06:27:48.706Z,17.15
2017-12-17T06:30:17.660Z,19.30
2017-12-17T06:32:48.471Z,16.92
2017-12-17T06:35:17.581Z,16.25
2017-12-17T06:37:46.435Z,13.80
2017-12-17T06:40:18.131Z,17.85
2017-12-17T06:42:47.059Z,12.00
2017-12-17T06:45:16.703Z,16.48
2017-12-17T06:47:45.733Z,17.15
2017-12-17T06:50:14.666Z,14.93
2017-12-17T06:52:43.701Z,17.50
2017-12-17T06:55:12.976Z,18.10
2017-12-17T06:57:42.234Z,19.05
2017-12-17T07:00:12.077Z,16.40
2017-12-17T07:02:41.652Z,16.77
2017-12-17T07:05:11.952Z,20.67
2017-12-17T07:07:41.188Z,17.33
2017-12-17T07:10:10.609Z,14.40
2017-12-17T07:12:39.801Z,18.12
2017-12-17T07:15:08.732Z,15.90
2017-12-17T07:17:37.742Z,17.70
2017-12-17T07:20:06.964Z,16.40
2017-12-17T07:22:35.912Z,19.33
2017-12-17T07:25:05.106Z,19.92
2017-12-17T07:27:34.541Z,20.15
2017-12-17T07:30:03.457Z,19.40
2017-12-17T07:32:32.402Z,22.70
2017-12-17T07:35:01.317Z,18.67
2017-12-17T07:37:30.296Z,17.02
2017-12-17T07:39:59.308Z,22.30
2017-12-17T07:42:28.265Z,20.33
2017-12-17T07:44:57.190Z,20.92
2017-12-17T07:47:26.372Z,15.57
2017-12-17T07:49:55.612Z,19.67
2017-12-17T07:52:24.583Z,17.85
2017-12-17T07:54:53.477Z,15.50
2017-12-17T07:57:22.414Z,20.50
2017-12-17T07:59:52.047Z,19.90
2017-12-17T08:02:30.816Z,21.15
2017-12-17T08:05:02.825Z,18.30
2017-12-17T08:07:31.884Z,16.48
2017-12-17T08:10:01.939Z,19.27
2017-12-17T08:12:31.300Z,14.52
2017-12-17T08:15:00.716Z,18.95
2017-12-17T08:17:30.060Z,17.65
2017-12-17T08:19:59.287Z,18.77
2017-12-17T08:22:28.785Z,17.80
2017-12-17T08:24:58.674Z,17.77
2017-12-17T08:27:27.773Z,18.65
2017-12-17T08:29:57.072Z,21.02
2017-12-17T08:32:26.514Z,17.90
2017-12-17T08:34:55.640Z,21.45
2017-12-17T08:37:25.173Z,18.60
2017-12-17T08:39:56.928Z,17.80
2017-12-17T08:42:26.553Z,23.02
2017-12-17T08:47:30.634Z,16.95
2017-12-17T08:50:01.425Z,16.77
2017-12-17T08:52:30.573Z,14.68
2017-12-17T08:55:00.453Z,16.05
2017-12-17T08:57:29.794Z,15.80
2017-12-17T08:59:59.178Z,14.95
2017-12-17T09:02:28.480Z,16.10
2017-12-17T09:04:57.580Z,14.27
2017-12-17T09:07:26.645Z,13.50
2017-12-17T09:09:56.083Z,16.67
2017-12-17T09:12:25.157Z,15.55
2017-12-17T09:14:54.566Z,17.10
2017-12-17T09:17:23.611Z,15.38
2017-12-17T09:19:52.771Z,14.55
2017-12-17T09:29:21.027Z,15.13
2017-12-17T09:31:50.335Z,17.17
2017-12-17T09:34:19.473Z,17.87
2017-12-17T09:36:49.144Z,14.60
2017-12-17T09:39:18.773Z,23.67
2017-12-17T09:41:48.169Z,14.57
2017-12-17T09:44:17.133Z,14.73
2017-12-17T09:46:46.466Z,17.80
2017-12-17T09:49:15.571Z,13.05
2017-12-17T09:51:46.904Z,15.20
2017-12-17T09:54:16.968Z,18.62
2017-12-17T09:56:46.063Z,15.60
2017-12-17T09:59:15.756Z,13.82
2017-12-17T10:01:45.943Z,14.07
2017-12-17T10:04:15.337Z,17.80
2017-12-17T10:06:44.680Z,20.20
2017-12-17T10:09:13.827Z,12.95
2017-12-17T10:11:46.658Z,14.45
2017-12-17T10:14:15.807Z,13.40
2017-12-17T10:16:44.824Z,16.80
2017-12-17T10:19:13.915Z,14.80
2017-12-17T10:21:42.949Z,13.25
2017-12-17T10:24:12.380Z,14.55
2017-12-17T10:26:48.629Z,14.48
2017-12-17T10:29:17.709Z,18.67
2017-12-17T10:31:48.836Z,14.70
2017-12-17T10:34:17.796Z,12.55
2017-12-17T10:36:46.936Z,14.43
2017-12-17T10:39:16.433Z,13.27
2017-12-17T10:41:45.567Z,15.25
2017-12-17T10:44:14.910Z,13.50
2017-12-17T10:46:43.994Z,11.02
2017-12-17T10:49:13.597Z,15.82
2017-12-17T10:51:43.586Z,16.77
2017-12-17T10:54:14.091Z,13.02
2017-12-17T10:56:43.024Z,11.90
2017-12-17T10:59:12.060Z,14.48
2017-12-17T11:01:41.822Z,12.77
2017-12-17T11:04:10.964Z,14.45
2017-12-17T11:06:40.592Z,14.23
2017-12-17T11:09:09.844Z,13.25
2017-12-17T11:11:39.186Z,12.00
2017-12-17T11:14:08.196Z,11.52
2017-12-17T11:16:37.875Z,13.35
2017-12-17T11:19:09.300Z,12.88
2017-12-17T11:21:38.888Z,11.98
2017-12-17T11:24:07.884Z,11.05
2017-12-17T11:26:37.328Z,10.90
2017-12-17T11:29:10.086Z,9.93
2017-12-17T11:31:39.122Z,12.60
2017-12-17T11:34:08.505Z,10.90
2017-12-17T11:36:37.503Z,11.00
2017-12-17T11:39:06.561Z,11.38
2017-12-17T11:41:35.474Z,12.88
2017-12-17T11:44:04.876Z,12.40
2017-12-17T11:46:35.197Z,11.18
2017-12-17T11:49:05.909Z,9.52
2017-12-17T11:51:36.596Z,8.95
2017-12-17T11:54:06.115Z,10.80
2017-12-17T11:56:35.111Z,10.68
2017-12-17T11:59:04.550Z,9.82
2017-12-17T12:01:35.739Z,11.98
2017-12-17T12:04:04.708Z,15.00
2017-12-17T12:06:33.679Z,14.55
2017-12-17T12:09:03.493Z,15.95
2017-12-17T12:11:32.573Z,16.40
2017-12-17T12:14:01.569Z,13.18
2017-12-17T12:16:31.086Z,15.18
2017-12-17T12:19:01.343Z,15.73
2017-12-17T12:21:30.908Z,10.45
2017-12-17T12:24:00.024Z,15.27
2017-12-17T12:26:29.121Z,11.35
2017-12-17T12:28:58.476Z,12.15
2017-12-17T12:31:27.822Z,13.65
2017-12-17T12:33:56.868Z,12.77
2017-12-17T12:36:26.152Z,12.35
2017-12-17T12:38:55.740Z,9.52
2017-12-17T12:41:24.842Z,9.50
2017-12-17T12:43:54.347Z,12.25
2017-12-17T12:46:23.688Z,10.15
2017-12-17T12:48:52.755Z,11.70
2017-12-17T12:51:21.811Z,9.25
2017-12-17T12:53:50.714Z,9.25
2017-12-17T12:56:19.894Z,8.73
2017-12-17T12:58:49.149Z,9.32
2017-12-17T13:01:18.382Z,11.30
2017-12-17T13:03:48.141Z,7.55
2017-12-17T13:06:17.428Z,9.45
2017-12-17T13:08:47.511Z,11.68
2017-12-17T13:11:16.894Z,8.15
2017-12-17T13:13:46.441Z,8.70
2017-12-17T13:16:15.579Z,6.57
2017-12-17T13:18:46.055Z,9.52
2017-12-17T13:23:50.228Z,8.05
2017-12-17T13:26:19.710Z,8.95
2017-12-17T13:31:22.552Z,8.40
2017-12-17T13:33:55.073Z,8.32
2017-12-17T13:36:25.395Z,7.03
2017-12-17T13:38:54.395Z,8.75
2017-12-17T13:43:56.522Z,8.10
2017-12-17T13:46:27.972Z,7.87
2017-12-17T13:48:57.763Z,8.60
2017-12-17T13:51:27.062Z,7.03
2017-12-17T13:53:56.490Z,3.75
2017-12-17T13:56:25.607Z,2.42
2017-12-17T14:01:32.173Z,3.45
2017-12-17T14:04:02.463Z,2.00
2017-12-17T14:06:31.655Z,2.28
2017-12-17T14:09:01.115Z,2.75
2017-12-17T14:11:30.569Z,5.93
2017-12-17T14:13:59.947Z,4.20
2017-12-17T14:16:29.629Z,4.35
2017-12-17T14:18:59.044Z,6.43
2017-12-17T14:21:28.299Z,7.50
2017-12-17T14:23:57.527Z,9.13
2017-12-17T14:26:27.460Z,9.20
2017-12-17T14:28:56.411Z,8.10
2017-12-17T14:31:25.348Z,7.47
2017-12-17T14:33:54.286Z,3.72
2017-12-17T14:36:23.307Z,2.30
2017-12-17T14:39:03.858Z,2.55
2017-12-17T14:41:32.725Z,3.20
2017-12-17T14:44:02.229Z,3.17
2017-12-17T14:46:32.162Z,5.22
2017-12-17T14:49:01.606Z,5.95
2017-12-17T14:51:31.456Z,5.82
2017-12-17T14:54:01.251Z,7.43
2017-12-17T14:56:30.718Z,7.18
2017-12-17T14:59:00.084Z,6.28
2017-12-17T15:01:29.572Z,11.55
2017-12-17T15:03:59.010Z,8.38
2017-12-17T15:06:28.508Z,7.47
2017-12-17T15:08:58.146Z,8.95
2017-12-17T15:11:27.653Z,8.95
2017-12-17T15:13:57.218Z,8.02
2017-12-17T15:16:26.933Z,10.65
2017-12-17T15:18:58.286Z,7.45
2017-12-17T15:21:27.960Z,7.65
2017-12-17T15:23:57.674Z,11.52
2017-12-17T15:26:27.159Z,9.90
2017-12-17T15:28:56.949Z,9.68
2017-12-17T15:31:26.485Z,9.70
2017-12-17T15:33:55.747Z,10.63
2017-12-17T15:36:25.322Z,10.80
2017-12-17T15:38:54.847Z,10.63
2017-12-17T15:41:24.591Z,11.68
2017-12-17T15:43:54.884Z,10.82
2017-12-17T15:46:25.978Z,12.32
2017-12-17T15:48:55.522Z,10.63
2017-12-17T15:51:25.157Z,12.70
2017-12-17T15:53:54.685Z,10.45
2017-12-17T15:56:23.941Z,9.75
2017-12-17T15:58:53.779Z,10.95
2017-12-17T16:01:23.230Z,9.25
2017-12-17T16:03:53.593Z,9.05
2017-12-17T16:06:23.872Z,10.20
2017-12-17T16:08:53.101Z,8.95
2017-12-17T16:11:22.585Z,10.63
2017-12-17T16:13:52.479Z,12.45
2017-12-17T16:16:22.340Z,9.85
2017-12-17T16:18:53.291Z,9.68
2017-12-17T16:21:23.292Z,8.68
2017-12-17T16:23:53.424Z,12.57
2017-12-17T16:26:23.846Z,8.82
2017-12-17T16:28:53.832Z,7.45
2017-12-17T16:31:23.765Z,6.68
2017-12-17T16:33:53.748Z,8.13
2017-12-17T16:36:23.724Z,9.18
2017-12-17T16:38:53.601Z,9.77
2017-12-17T16:41:23.523Z,11.18
2017-12-17T16:43:53.616Z,7.78
2017-12-17T16:46:23.536Z,12.32
2017-12-17T16:48:53.347Z,8.95
2017-12-17T16:51:24.235Z,8.23
2017-12-17T16:53:54.411Z,10.45
2017-12-17T16:56:25.422Z,12.45
2017-12-17T16:58:55.222Z,8.95
2017-12-17T17:01:25.016Z,8.63
2017-12-17T17:03:54.813Z,10.93
2017-12-17T17:06:24.650Z,9.02
2017-12-17T17:08:54.530Z,10.45
2017-12-17T17:11:24.355Z,8.20
2017-12-17T17:13:54.164Z,9.82
2017-12-17T17:16:24.125Z,10.95
2017-12-17T17:18:53.915Z,10.60
2017-12-17T17:21:23.728Z,29.83
2017-12-17T17:23:53.880Z,10.07
2017-12-17T17:26:23.717Z,30.50
2017-12-17T17:28:53.731Z,13.00
2017-12-17T17:31:23.545Z,9.23
2017-12-17T17:33:53.346Z,9.40
2017-12-17T17:36:23.161Z,10.50
2017-12-17T17:38:53.009Z,9.65
2017-12-17T17:41:22.585Z,10.07
2017-12-17T17:43:52.110Z,11.25
2017-12-17T17:46:21.734Z,16.65
2017-12-17T17:48:51.570Z,11.80
2017-12-17T17:51:21.587Z,10.40
2017-12-17T17:53:51.385Z,11.50
2017-12-17T17:56:21.193Z,12.40
2017-12-17T17:58:51.412Z,10.50
2017-12-17T18:01:21.359Z,11.30
2017-12-17T18:03:51.333Z,12.80
2017-12-17T18:06:21.272Z,11.68
2017-12-17T18:08:51.187Z,10.75
2017-12-17T18:11:21.670Z,11.02
2017-12-17T18:13:51.498Z,12.75
2017-12-17T18:16:21.344Z,10.27
2017-12-17T18:18:51.150Z,14.60
2017-12-17T18:21:21.094Z,10.68
2017-12-17T18:23:50.958Z,11.98
2017-12-17T18:26:21.192Z,9.90
2017-12-17T18:28:51.135Z,11.70
2017-12-17T18:31:21.106Z,15.65
2017-12-17T18:33:51.039Z,13.10
2017-12-17T18:36:20.903Z,13.95
2017-12-17T18:38:50.746Z,13.45
2017-12-17T18:41:20.645Z,12.25
2017-12-17T18:43:50.730Z,14.10
2017-12-17T18:46:20.555Z,15.27
2017-12-17T18:48:50.412Z,13.85
2017-12-17T18:51:20.287Z,16.15
2017-12-17T18:53:50.105Z,13.57
2017-12-17T18:56:19.930Z,15.15
2017-12-17T18:58:49.819Z,14.27
2017-12-17T19:01:19.943Z,25.62
2017-12-17T19:03:49.799Z,20.50
2017-12-17T19:06:19.792Z,19.48
2017-12-17T19:08:50.096Z,21.20
2017-12-17T19:11:19.903Z,42.67
2017-12-17T19:14:03.103Z,27.50
2017-12-17T19:16:35.971Z,14.82
2017-12-17T19:19:15.360Z,18.02
2017-12-17T19:21:46.273Z,14.40
2017-12-17T19:24:16.208Z,12.32
2017-12-17T19:26:46.051Z,13.68
2017-12-17T19:29:15.936Z,12.27
2017-12-17T19:31:46.038Z,14.75
2017-12-17T19:34:15.968Z,16.48
2017-12-17T19:36:45.938Z,13.23
2017-12-17T19:39:15.969Z,13.38
2017-12-17T19:41:45.942Z,13.18
2017-12-17T19:44:15.816Z,11.50
2017-12-17T19:46:46.573Z,16.17
2017-12-17T19:49:17.028Z,14.32
2017-12-17T19:51:46.966Z,13.88
2017-12-17T19:54:16.959Z,13.95
2017-12-17T19:56:46.963Z,12.45
2017-12-17T19:59:16.894Z,13.13
2017-12-17T20:01:47.628Z,11.93
2017-12-17T20:04:18.194Z,10.48
2017-12-17T20:06:48.270Z,10.18
2017-12-17T20:09:18.252Z,17.35
2017-12-17T20:11:48.489Z,12.70
2017-12-17T20:14:18.321Z,13.13
2017-12-17T20:16:48.204Z,11.73
2017-12-17T20:19:17.896Z,12.65
2017-12-17T20:21:47.539Z,11.02
2017-12-17T20:24:17.197Z,11.15
2017-12-17T20:26:46.912Z,10.00
2017-12-17T20:29:16.548Z,10.98
2017-12-17T20:31:46.427Z,12.37
2017-12-17T20:34:16.111Z,14.23
2017-12-17T20:36:46.020Z,10.32
2017-12-17T20:39:15.927Z,10.95
2017-12-17T20:41:45.859Z,11.93
2017-12-17T20:44:15.744Z,8.68
2017-12-17T20:46:45.612Z,13.43
2017-12-17T20:49:15.860Z,11.65
2017-12-17T20:51:45.712Z,11.52
2017-12-17T20:54:15.541Z,10.73
2017-12-17T20:56:45.460Z,10.68
2017-12-17T20:59:15.293Z,11.85
2017-12-17T21:01:56.653Z,19.42
2017-12-17T21:04:28.922Z,16.15
2017-12-17T21:06:58.728Z,12.63
2017-12-17T21:09:28.527Z,13.82
2017-12-17T21:11:59.186Z,9.70
2017-12-17T21:14:29.285Z,14.10
2017-12-17T21:16:59.323Z,13.30
2017-12-17T21:19:29.366Z,11.32
2017-12-17T21:21:59.221Z,14.85
2017-12-17T21:24:29.383Z,11.63
2017-12-17T21:27:35.382Z,10.77
2017-12-17T21:30:05.440Z,9.82
2017-12-17T21:32:35.626Z,14.07
2017-12-17T21:35:05.770Z,13.23
2017-12-17T21:37:35.752Z,12.80
2017-12-17T21:40:05.808Z,10.27
2017-12-17T21:42:35.966Z,10.60
2017-12-17T21:45:06.122Z,10.88
2017-12-17T21:47:36.209Z,10.32
2017-12-17T21:50:06.118Z,10.50
2017-12-17T21:52:36.367Z,10.75
2017-12-17T21:55:07.172Z,9.20
2017-12-17T21:57:37.804Z,14.30
2017-12-17T22:00:07.692Z,11.48
2017-12-17T22:02:37.839Z,13.25
2017-12-17T22:05:07.755Z,8.18
2017-12-17T22:07:37.698Z,14.30
2017-12-17T22:10:07.612Z,11.93
2017-12-17T22:12:37.615Z,10.73
2017-12-17T22:15:07.719Z,13.43
2017-12-17T22:17:37.774Z,14.20
2017-12-17T22:20:08.554Z,12.45
2017-12-17T22:22:38.603Z,18.35
2017-12-17T22:25:09.424Z,13.00
2017-12-17T22:27:39.360Z,13.25
2017-12-17T22:30:12.671Z,12.25
2017-12-17T22:32:42.633Z,11.88
2017-12-17T22:35:12.605Z,12.07
2017-12-17T22:37:42.320Z,11.77
2017-12-17T22:40:12.325Z,15.32
2017-12-17T22:42:42.217Z,11.70
2017-12-17T22:45:17.911Z,11.30
2017-12-17T22:53:09.876Z,11.27
2017-12-17T22:55:40.043Z,12.93
2017-12-17T22:58:11.210Z,11.48
2017-12-17T23:00:41.136Z,12.30
2017-12-17T23:03:10.944Z,14.87
2017-12-17T23:05:40.970Z,12.60
2017-12-17T23:08:14.376Z,15.45
2017-12-17T23:10:44.363Z,10.73
2017-12-17T23:15:57.912Z,12.02
2017-12-17T23:18:27.898Z,12.20
2017-12-17T23:20:57.847Z,11.85
2017-12-17T23:23:28.400Z,10.50
2017-12-17T23:26:08.392Z,10.00
2017-12-17T23:28:41.298Z,12.85
2017-12-17T23:31:13.542Z,9.50
2017-12-17T23:33:44.514Z,13.82
2017-12-17T23:36:15.249Z,14.38
2017-12-17T23:38:45.398Z,12.32
2017-12-17T23:41:17.601Z,11.52
2017-12-17T23:43:48.181Z,12.07
2017-12-17T23:46:18.329Z,12.70
2017-12-17T23:48:48.339Z,12.70
2017-12-17T23:51:19.601Z,13.15
2017-12-17T23:53:49.522Z,12.68
2017-12-17T23:56:19.443Z,12.20
2017-12-17T23:58:49.398Z,13.68
